createdAt,value
2022-08-16T00:01:26.487Z,22.50
2022-08-16T00:03:56.109Z,22.60
2022-08-16T00:06:23.481Z,22.60
2022-08-16T00:08:52.556Z,22.50
2022-08-16T00:11:21.328Z,22.60
2022-08-16T00:13:53.480Z,22.60
2022-08-16T00:17:01.534Z,22.60
2022-08-16T00:19:41.234Z,22.60
2022-08-16T00:22:13.331Z,22.50
2022-08-16T00:24:44.846Z,22.50
2022-08-16T00:27:15.101Z,22.50
2022-08-16T00:29:42.606Z,22.50
2022-08-16T00:32:11.306Z,22.50
2022-08-16T00:34:52.924Z,22.60
2022-08-16T00:37:56.998Z,22.50
2022-08-16T00:40:34.895Z,22.60
2022-08-16T00:43:12.167Z,22.50
2022-08-16T00:46:34.766Z,22.50
2022-08-16T00:49:17.554Z,22.50
2022-08-16T00:51:53.644Z,22.40
2022-08-16T00:54:30.878Z,22.40
2022-08-16T00:57:05.151Z,22.30
2022-08-16T00:59:38.023Z,22.30
2022-08-16T01:02:21.985Z,22.20
2022-08-16T01:05:09.391Z,22.20
2022-08-16T01:07:51.901Z,22.20
2022-08-16T01:10:32.111Z,22.10
2022-08-16T01:13:08.306Z,22.20
2022-08-16T01:15:46.804Z,22.20
2022-08-16T01:18:39.935Z,22.20
2022-08-16T01:21:15.245Z,22.20
2022-08-16T01:24:02.868Z,22.30
2022-08-16T01:26:35.549Z,22.30
2022-08-16T01:29:10.936Z,22.30
2022-08-16T01:31:42.686Z,22.30
2022-08-16T01:34:22.971Z,22.20
2022-08-16T01:37:20.002Z,22.20
2022-08-16T01:39:48.406Z,22.10
2022-08-16T01:42:16.070Z,22.10
2022-08-16T01:44:47.120Z,22.10
2022-08-16T01:47:19.186Z,22.10
2022-08-16T01:50:42.999Z,22.10
2022-08-16T01:52:35.841Z,22.10
2022-08-16T01:55:04.200Z,22.10
2022-08-16T01:57:35.543Z,22.10
2022-08-16T02:00:18.972Z,22.10
2022-08-16T02:02:52.129Z,22.10
2022-08-16T02:05:21.193Z,22.10
2022-08-16T02:07:51.872Z,22.10
2022-08-16T02:10:19.753Z,22.10
2022-08-16T02:12:51.051Z,22.10
2022-08-16T02:15:25.983Z,22.10
2022-08-16T02:18:01.293Z,22.00
2022-08-16T02:20:36.789Z,22.00
2022-08-16T02:23:09.845Z,22.00
2022-08-16T02:25:52.634Z,22.00
2022-08-16T02:28:23.381Z,21.90
2022-08-16T02:30:52.276Z,21.90
2022-08-16T02:33:44.173Z,21.90
2022-08-16T02:36:47.526Z,21.90
2022-08-16T02:39:04.504Z,21.90
2022-08-16T02:41:31.586Z,21.90
2022-08-16T02:44:01.128Z,21.90
2022-08-16T02:46:33.317Z,22.00
2022-08-16T02:49:02.049Z,21.90
2022-08-16T02:51:29.575Z,21.90
2022-08-16T02:53:59.196Z,22.00
2022-08-16T02:56:32.242Z,21.90
2022-08-16T02:59:00.100Z,21.90
2022-08-16T03:01:36.659Z,21.90
2022-08-16T03:04:41.394Z,21.90
2022-08-16T03:06:56.408Z,21.90
2022-08-16T03:09:28.577Z,21.90
2022-08-16T03:11:57.277Z,22.00
2022-08-16T03:14:25.323Z,21.90
2022-08-16T03:16:59.679Z,22.00
2022-08-16T03:19:48.318Z,21.90
2022-08-16T03:22:28.000Z,21.90
2022-08-16T03:25:00.803Z,21.90
2022-08-16T03:27:32.294Z,21.90
2022-08-16T03:30:16.140Z,21.90
2022-08-16T03:32:48.018Z,21.80
2022-08-16T03:35:32.741Z,21.80
2022-08-16T03:38:04.714Z,21.80
2022-08-16T03:40:51.850Z,21.80
2022-08-16T03:43:21.442Z,21.80
2022-08-16T03:45:52.550Z,21.80
2022-08-16T03:48:36.798Z,21.80
2022-08-16T03:51:12.451Z,21.80
2022-08-16T03:53:41.616Z,21.80
2022-08-16T03:56:19.980Z,21.80
2022-08-16T03:58:50.865Z,21.70
2022-08-16T04:01:22.578Z,21.60
2022-08-16T04:03:51.010Z,21.60
2022-08-16T04:06:20.981Z,21.60
2022-08-16T04:08:48.745Z,21.60
2022-08-16T04:11:17.107Z,21.60
2022-08-16T04:13:58.741Z,21.70
2022-08-16T04:16:28.906Z,21.80
2022-08-16T04:19:02.050Z,21.80
2022-08-16T04:21:33.312Z,21.80
2022-08-16T04:24:03.004Z,21.80
2022-08-16T04:26:32.202Z,21.80
2022-08-16T04:29:16.550Z,21.90
2022-08-16T04:31:56.848Z,21.90
2022-08-16T04:34:34.529Z,22.00
2022-08-16T04:37:02.477Z,22.00
2022-08-16T04:39:36.753Z,22.10
2022-08-16T04:42:16.279Z,22.10
2022-08-16T04:44:54.066Z,22.20
2022-08-16T04:47:33.296Z,22.30
2022-08-16T04:50:17.991Z,22.30
2022-08-16T04:52:47.851Z,22.30
2022-08-16T04:55:22.377Z,22.40
2022-08-16T04:58:46.173Z,22.50
2022-08-16T05:00:52.558Z,22.50
2022-08-16T05:03:20.629Z,22.50
2022-08-16T05:05:59.037Z,22.50
2022-08-16T05:08:31.345Z,22.60
2022-08-16T05:11:05.681Z,22.60
2022-08-16T05:13:41.823Z,22.70
2022-08-16T05:16:27.866Z,22.70
2022-08-16T05:19:02.203Z,22.80
2022-08-16T05:21:38.221Z,23.00
2022-08-16T05:24:07.379Z,23.00
2022-08-16T05:26:43.358Z,23.20
2022-08-16T05:29:16.660Z,23.20
2022-08-16T05:31:48.107Z,23.30
2022-08-16T05:34:22.459Z,23.50
2022-08-16T05:36:51.053Z,23.70
2022-08-16T05:39:19.083Z,23.80
2022-08-16T05:41:48.955Z,24.00
2022-08-16T05:44:23.927Z,24.20
2022-08-16T05:47:00.311Z,24.30
2022-08-16T05:49:38.382Z,24.50
2022-08-16T05:52:10.842Z,24.70
2022-08-16T05:54:46.747Z,24.90
2022-08-16T05:57:16.378Z,25.00
2022-08-16T05:59:45.552Z,25.20
2022-08-16T06:02:14.311Z,25.30
2022-08-16T06:04:42.250Z,25.50
2022-08-16T06:07:24.888Z,25.50
2022-08-16T06:09:58.241Z,25.60
2022-08-16T06:12:28.945Z,25.80
2022-08-16T06:15:04.197Z,25.90
2022-08-16T06:17:42.421Z,26.00
2022-08-16T06:20:24.041Z,26.10
2022-08-16T06:22:58.845Z,26.20
2022-08-16T06:25:36.576Z,26.30
2022-08-16T06:28:17.010Z,26.40
2022-08-16T06:30:45.379Z,26.50
2022-08-16T06:33:19.498Z,26.60
2022-08-16T06:35:49.684Z,26.70
2022-08-16T06:38:32.000Z,26.80
2022-08-16T06:41:00.080Z,27.00
2022-08-16T06:43:27.589Z,27.20
2022-08-16T06:45:55.283Z,27.30
2022-08-16T06:48:33.042Z,27.50
2022-08-16T06:51:04.265Z,27.60
2022-08-16T06:53:35.607Z,27.70
2022-08-16T06:56:14.830Z,27.90
2022-08-16T06:58:52.859Z,28.00
2022-08-16T07:01:44.737Z,28.20
2022-08-16T07:04:10.393Z,28.40
2022-08-16T07:06:43.190Z,28.50
2022-08-16T07:09:12.634Z,28.70
2022-08-16T07:11:46.085Z,28.80
2022-08-16T07:14:25.911Z,28.90
2022-08-16T07:17:00.426Z,29.10
2022-08-16T07:20:01.363Z,29.10
2022-08-16T07:22:37.051Z,29.20
2022-08-16T07:25:11.790Z,29.30
2022-08-16T07:27:40.144Z,29.50
2022-08-16T07:30:44.876Z,29.70
2022-08-16T07:33:00.707Z,29.70
2022-08-16T07:35:27.979Z,29.70
2022-08-16T07:37:55.104Z,29.80
2022-08-16T07:40:49.223Z,29.90
2022-08-16T07:43:10.074Z,29.90
2022-08-16T07:45:38.579Z,29.90
2022-08-16T07:48:11.315Z,30.10
2022-08-16T07:50:57.138Z,30.10
2022-08-16T07:53:32.007Z,30.20
2022-08-16T07:56:04.376Z,30.30
2022-08-16T07:58:36.251Z,30.30
2022-08-16T08:01:10.717Z,30.40
2022-08-16T08:03:48.285Z,30.40
2022-08-16T08:06:24.875Z,30.50
2022-08-16T08:08:57.036Z,30.60
2022-08-16T08:11:29.465Z,30.70
2022-08-16T08:14:03.750Z,30.90
2022-08-16T08:16:35.680Z,30.90
2022-08-16T08:19:03.332Z,30.90
2022-08-16T08:21:58.523Z,31.00
2022-08-16T08:24:32.132Z,31.00
2022-08-16T08:27:02.397Z,31.10
2022-08-16T08:29:37.764Z,31.20
2022-08-16T08:32:58.516Z,31.20
2022-08-16T08:35:03.150Z,31.10
2022-08-16T08:37:54.338Z,31.20
2022-08-16T08:40:19.896Z,31.20
2022-08-16T08:42:57.996Z,31.30
2022-08-16T08:45:52.931Z,31.40
2022-08-16T08:48:34.620Z,31.60
2022-08-16T08:51:09.673Z,31.60
2022-08-16T08:53:38.665Z,31.60
2022-08-16T08:56:23.688Z,31.70
2022-08-16T08:58:54.934Z,31.90
2022-08-16T09:01:36.293Z,32.00
2022-08-16T09:04:06.784Z,32.30
2022-08-16T09:06:35.628Z,32.40
2022-08-16T09:09:17.171Z,32.50
2022-08-16T09:11:52.437Z,32.60
2022-08-16T09:14:24.307Z,32.60
2022-08-16T09:17:01.242Z,32.70
2022-08-16T09:19:33.684Z,32.80
2022-08-16T09:22:01.795Z,33.10
2022-08-16T09:24:51.548Z,33.00
2022-08-16T09:27:18.514Z,33.10
2022-08-16T09:29:46.374Z,33.10
2022-08-16T09:32:28.931Z,33.10
2022-08-16T09:35:01.555Z,33.10
2022-08-16T09:37:36.372Z,33.30
2022-08-16T09:40:31.905Z,33.20
2022-08-16T09:42:59.087Z,33.20
2022-08-16T09:45:29.034Z,33.30
2022-08-16T09:47:58.545Z,33.40
2022-08-16T09:50:36.683Z,33.50
2022-08-16T09:53:15.481Z,33.50
2022-08-16T09:55:49.587Z,33.50
2022-08-16T09:58:41.461Z,33.60
2022-08-16T10:01:08.560Z,33.50
2022-08-16T10:03:38.843Z,33.50
2022-08-16T10:06:33.258Z,33.60
2022-08-16T10:09:06.748Z,33.70
2022-08-16T10:11:55.977Z,33.80
2022-08-16T10:14:38.710Z,33.90
2022-08-16T10:17:06.245Z,34.10
2022-08-16T10:19:34.713Z,34.20
2022-08-16T10:22:05.084Z,34.30
2022-08-16T10:24:33.923Z,34.30
2022-08-16T10:27:25.283Z,34.50
2022-08-16T10:30:01.242Z,34.60
2022-08-16T10:32:35.072Z,34.80
2022-08-16T10:35:03.647Z,34.80
2022-08-16T10:37:35.680Z,34.90
2022-08-16T10:40:28.375Z,35.00
2022-08-16T10:43:00.145Z,35.10
2022-08-16T10:45:37.041Z,35.10
2022-08-16T10:48:28.201Z,35.10
2022-08-16T10:51:00.006Z,35.30
2022-08-16T10:53:32.784Z,35.40
2022-08-16T10:56:51.814Z,35.30
2022-08-16T10:59:32.366Z,35.30
2022-08-16T11:02:21.867Z,35.30
2022-08-16T11:11:05.245Z,35.70
2022-08-16T11:12:54.307Z,35.70
2022-08-16T11:15:26.190Z,35.70
2022-08-16T11:20:49.313Z,35.90
2022-08-16T11:23:17.832Z,36.10
2022-08-16T11:26:07.613Z,36.00
2022-08-16T11:29:12.376Z,35.90
2022-08-16T11:31:23.089Z,35.70
2022-08-16T11:33:52.758Z,35.70
2022-08-16T11:36:25.132Z,35.60
2022-08-16T11:38:58.856Z,35.60
2022-08-16T11:41:32.409Z,35.60
2022-08-16T11:44:01.076Z,35.60
2022-08-16T11:46:44.754Z,35.60
2022-08-16T11:49:14.199Z,35.60
2022-08-16T11:51:46.547Z,35.60
2022-08-16T11:54:20.682Z,35.70
2022-08-16T11:56:52.983Z,35.70
2022-08-16T11:59:28.768Z,35.80
2022-08-16T12:02:04.458Z,35.70
2022-08-16T12:04:47.100Z,35.60
2022-08-16T12:07:19.603Z,35.70
2022-08-16T12:09:53.247Z,35.70
2022-08-16T12:12:23.498Z,35.60
2022-08-16T12:14:59.874Z,35.60
2022-08-16T12:17:32.517Z,35.60
2022-08-16T12:20:01.778Z,35.40
2022-08-16T12:22:36.770Z,35.30
2022-08-16T12:25:15.171Z,35.40
2022-08-16T12:27:44.490Z,35.30
2022-08-16T12:30:26.307Z,35.40
2022-08-16T12:32:57.877Z,35.40
2022-08-16T12:35:30.064Z,35.40
2022-08-16T12:38:00.872Z,35.40
2022-08-16T12:40:42.523Z,35.30
2022-08-16T12:43:13.426Z,35.20
2022-08-16T12:45:48.894Z,35.10
2022-08-16T12:48:39.008Z,34.90
2022-08-16T12:51:19.846Z,34.80
2022-08-16T12:53:56.150Z,34.70
2022-08-16T12:56:31.240Z,34.60
2022-08-16T12:59:01.124Z,34.50
2022-08-16T13:01:34.081Z,34.40
2022-08-16T13:04:21.350Z,34.30
2022-08-16T13:06:52.277Z,34.30
2022-08-16T13:09:23.601Z,34.20
2022-08-16T13:12:05.575Z,34.10
2022-08-16T13:14:41.417Z,33.90
2022-08-16T13:17:18.819Z,33.70
2022-08-16T13:20:07.183Z,33.40
2022-08-16T13:22:43.851Z,33.10
2022-08-16T13:25:21.373Z,32.80
2022-08-16T13:28:01.788Z,32.70
2022-08-16T13:30:43.126Z,32.60
2022-08-16T13:33:24.757Z,32.40
2022-08-16T13:35:59.706Z,32.30
2022-08-16T13:38:31.491Z,32.10
2022-08-16T13:41:12.525Z,31.90
2022-08-16T13:43:40.438Z,31.80
2022-08-16T13:46:08.172Z,31.70
2022-08-16T13:48:44.548Z,31.70
2022-08-16T13:51:19.726Z,31.70
2022-08-16T13:54:02.808Z,31.70
2022-08-16T13:56:37.513Z,31.70
2022-08-16T13:59:20.842Z,31.70
2022-08-16T14:01:59.589Z,31.60
2022-08-16T14:04:31.209Z,31.40
2022-08-16T14:07:01.491Z,31.20
2022-08-16T14:09:32.434Z,31.20
2022-08-16T14:12:09.527Z,31.10
2022-08-16T14:14:37.577Z,31.10
2022-08-16T14:17:04.762Z,31.10
2022-08-16T14:19:37.105Z,31.10
2022-08-16T14:22:35.655Z,31.00
2022-08-16T14:25:07.207Z,30.90
2022-08-16T14:27:49.189Z,30.60
2022-08-16T14:30:21.978Z,30.50
2022-08-16T14:32:51.181Z,30.30
2022-08-16T14:35:36.781Z,30.10
2022-08-16T14:38:18.133Z,29.90
2022-08-16T14:40:52.815Z,29.50
2022-08-16T14:43:23.663Z,29.20
2022-08-16T14:45:50.997Z,29.00
2022-08-16T14:48:26.368Z,28.70
2022-08-16T14:50:55.391Z,28.40
2022-08-16T14:53:26.406Z,28.10
2022-08-16T14:55:54.144Z,28.00
2022-08-16T14:58:34.871Z,27.80
2022-08-16T15:01:05.469Z,27.50
2022-08-16T15:03:33.112Z,27.20
2022-08-16T15:06:01.840Z,27.10
2022-08-16T15:08:36.401Z,27.00
2022-08-16T15:11:07.687Z,26.80
2022-08-16T15:13:36.193Z,26.30
2022-08-16T15:16:04.835Z,25.90
2022-08-16T15:18:33.568Z,25.80
2022-08-16T15:21:04.067Z,25.70
2022-08-16T15:23:33.879Z,25.60
2022-08-16T15:26:04.093Z,25.40
2022-08-16T15:28:36.682Z,25.30
2022-08-16T15:31:10.364Z,25.20
2022-08-16T15:33:51.062Z,25.00
2022-08-16T15:36:25.881Z,25.00
2022-08-16T15:39:05.762Z,24.90
2022-08-16T15:41:44.321Z,24.80
2022-08-16T15:44:22.201Z,24.50
2022-08-16T15:46:59.864Z,24.30
2022-08-16T15:49:37.660Z,24.20
2022-08-16T15:52:20.565Z,24.10
2022-08-16T15:54:52.152Z,24.00
2022-08-16T15:57:26.060Z,24.00
2022-08-16T15:59:55.805Z,24.00
2022-08-16T16:02:30.912Z,24.00
2022-08-16T16:05:02.017Z,24.00
2022-08-16T16:07:32.041Z,24.10
2022-08-16T16:10:04.806Z,24.00
2022-08-16T16:12:50.906Z,23.90
2022-08-16T16:15:23.613Z,23.90
2022-08-16T16:17:53.228Z,24.00
2022-08-16T16:20:24.513Z,23.90
2022-08-16T16:23:00.200Z,23.90
2022-08-16T16:25:29.340Z,23.80
2022-08-16T16:27:59.820Z,23.80
2022-08-16T16:30:37.377Z,23.70
2022-08-16T16:33:21.335Z,23.90
2022-08-16T16:36:00.029Z,24.00
2022-08-16T16:38:30.896Z,24.30
2022-08-16T16:41:02.581Z,24.50
2022-08-16T16:43:31.325Z,24.80
2022-08-16T16:45:59.787Z,24.80
2022-08-16T16:48:29.774Z,24.90
2022-08-16T16:51:09.373Z,25.00
2022-08-16T16:53:42.139Z,25.10
2022-08-16T16:56:19.693Z,25.10
2022-08-16T16:58:57.665Z,25.20
2022-08-16T17:01:59.328Z,25.30
2022-08-16T17:04:32.357Z,25.50
2022-08-16T17:07:02.267Z,25.50
2022-08-16T17:09:30.688Z,25.60
2022-08-16T17:11:58.774Z,25.70
2022-08-16T17:14:32.848Z,25.80
2022-08-16T17:17:08.668Z,25.90
2022-08-16T17:19:40.998Z,25.90
2022-08-16T17:22:15.666Z,25.80
2022-08-16T17:24:50.655Z,25.80
2022-08-16T17:27:32.728Z,25.90
2022-08-16T17:30:16.506Z,25.90
2022-08-16T17:32:58.012Z,25.70
2022-08-16T17:35:34.851Z,25.60
2022-08-16T17:38:06.785Z,25.60
2022-08-16T17:40:47.525Z,25.40
2022-08-16T17:43:31.201Z,25.50
2022-08-16T17:45:59.066Z,25.70
2022-08-16T17:48:27.174Z,25.60
2022-08-16T17:50:55.041Z,25.50
2022-08-16T17:53:23.297Z,25.40
2022-08-16T17:55:51.170Z,25.30
2022-08-16T17:58:23.675Z,25.40
2022-08-16T18:00:59.834Z,25.50
2022-08-16T18:04:06.805Z,25.60
2022-08-16T18:06:24.220Z,25.50
2022-08-16T18:09:00.391Z,25.60
2022-08-16T18:11:30.189Z,25.60
2022-08-16T18:14:00.073Z,25.60
2022-08-16T18:16:27.166Z,25.50
2022-08-16T18:18:54.230Z,25.50
2022-08-16T18:21:40.283Z,25.50
2022-08-16T18:24:10.071Z,25.40
2022-08-16T18:26:38.386Z,25.40
2022-08-16T18:29:06.786Z,25.40
2022-08-16T18:31:34.007Z,25.30
2022-08-16T18:34:01.461Z,25.20
2022-08-16T18:36:31.212Z,25.20
2022-08-16T18:38:58.758Z,25.20
2022-08-16T18:41:27.771Z,25.20
2022-08-16T18:44:25.025Z,25.20
2022-08-16T18:46:46.052Z,25.20
2022-08-16T18:49:19.487Z,25.20
2022-08-16T18:51:46.990Z,25.10
2022-08-16T18:54:18.350Z,25.00
2022-08-16T18:56:56.500Z,25.00
2022-08-16T18:59:30.584Z,25.00
2022-08-16T19:02:04.861Z,25.00
2022-08-16T19:04:54.821Z,24.90
2022-08-16T19:07:30.747Z,24.90
2022-08-16T19:10:02.530Z,24.90
2022-08-16T19:12:38.020Z,24.90
2022-08-16T19:15:21.847Z,24.80
2022-08-16T19:17:49.616Z,24.80
2022-08-16T19:20:22.097Z,24.80
2022-08-16T19:23:10.679Z,24.70
2022-08-16T19:25:48.103Z,24.80
2022-08-16T19:28:49.052Z,24.70
2022-08-16T19:31:28.176Z,24.50
2022-08-16T19:33:57.115Z,24.10
2022-08-16T19:36:38.227Z,23.90
2022-08-16T19:39:16.273Z,23.90
2022-08-16T19:41:52.039Z,23.90
2022-08-16T19:44:22.929Z,23.90
2022-08-16T19:46:51.068Z,23.70
2022-08-16T19:49:18.234Z,23.70
2022-08-16T19:51:47.119Z,23.50
2022-08-16T19:54:14.299Z,23.40
2022-08-16T19:56:41.443Z,23.30
2022-08-16T19:59:20.995Z,23.40
2022-08-16T20:01:51.855Z,23.40
2022-08-16T20:04:20.773Z,23.30
2022-08-16T20:06:53.262Z,23.30
2022-08-16T20:09:22.916Z,23.30
2022-08-16T20:11:52.615Z,23.20
2022-08-16T20:14:25.118Z,23.10
2022-08-16T20:16:55.789Z,23.10
2022-08-16T20:19:23.139Z,23.20
2022-08-16T20:21:50.383Z,23.20
2022-08-16T20:24:33.592Z,23.20
2022-08-16T20:27:02.672Z,23.20
2022-08-16T20:29:29.805Z,23.00
2022-08-16T20:31:56.857Z,22.80
2022-08-16T20:34:23.888Z,22.70
2022-08-16T20:36:50.845Z,22.50
2022-08-16T20:39:17.901Z,22.40
2022-08-16T20:41:45.196Z,22.40
2022-08-16T20:44:12.868Z,22.30
2022-08-16T20:46:40.240Z,22.30
2022-08-16T20:49:10.055Z,22.30
2022-08-16T20:51:46.725Z,22.20
2022-08-16T20:54:17.047Z,22.10
2022-08-16T20:56:44.095Z,22.10
2022-08-16T20:59:11.089Z,21.90
2022-08-16T21:01:45.607Z,21.90
2022-08-16T21:04:14.357Z,22.00
2022-08-16T21:06:41.462Z,22.10
2022-08-16T21:09:19.953Z,22.20
2022-08-16T21:11:47.001Z,22.10
2022-08-16T21:14:13.982Z,22.00
2022-08-16T21:16:41.370Z,21.90
2022-08-16T21:19:08.464Z,21.60
2022-08-16T21:21:35.581Z,21.50
2022-08-16T21:24:02.676Z,21.60
2022-08-16T21:26:30.204Z,21.70
2022-08-16T21:28:57.451Z,21.70
2022-08-16T21:31:24.641Z,21.80
2022-08-16T21:33:55.140Z,21.70
2022-08-16T21:36:35.485Z,21.80
2022-08-16T21:39:06.004Z,21.80
2022-08-16T21:53:35.030Z,21.90
2022-08-16T21:56:03.717Z,22.80
2022-08-16T21:58:32.390Z,22.60
2022-08-16T22:01:01.550Z,22.30
2022-08-16T22:03:33.072Z,22.20
2022-08-16T22:06:12.621Z,22.10
2022-08-16T22:08:49.389Z,22.00
2022-08-16T22:11:23.375Z,22.00
2022-08-16T22:13:58.746Z,22.10
2022-08-16T22:16:33.457Z,22.00
2022-08-16T22:19:02.121Z,21.80
2022-08-16T22:21:31.079Z,21.60
2022-08-16T22:23:59.028Z,21.70
2022-08-16T22:26:35.576Z,21.70
2022-08-16T22:29:11.329Z,21.60
2022-08-16T22:31:40.547Z,21.50
2022-08-16T22:34:08.969Z,21.50
2022-08-16T22:36:36.374Z,21.50
2022-08-16T22:39:08.716Z,21.50
2022-08-16T22:41:38.967Z,21.30
2022-08-16T22:44:07.623Z,21.30
2022-08-16T22:46:36.743Z,21.20
2022-08-16T22:49:07.480Z,21.10
2022-08-16T22:51:36.259Z,21.20
2022-08-16T22:54:39.344Z,21.10
2022-08-16T22:56:52.104Z,21.10
2022-08-16T22:59:19.101Z,21.10
2022-08-16T23:01:46.152Z,21.10
2022-08-16T23:04:13.185Z,21.00
2022-08-16T23:06:40.145Z,21.10
2022-08-16T23:09:07.064Z,21.20
2022-08-16T23:11:34.031Z,21.30
2022-08-16T23:14:00.985Z,21.40
2022-08-16T23:16:34.266Z,21.50
2022-08-16T23:19:09.364Z,21.60
2022-08-16T23:21:39.989Z,21.70
2022-08-16T23:24:08.668Z,21.70
2022-08-16T23:26:47.682Z,21.60
2022-08-16T23:29:25.149Z,21.60
2022-08-16T23:32:11.410Z,21.50
2022-08-16T23:34:38.563Z,21.40
2022-08-16T23:37:06.582Z,21.40
2022-08-16T23:39:34.444Z,21.30
2022-08-16T23:42:01.955Z,21.20
2022-08-16T23:44:57.361Z,21.20
2022-08-16T23:47:15.979Z,21.10
2022-08-16T23:50:01.202Z,21.00
2022-08-16T23:52:54.856Z,21.00
2022-08-16T23:55:17.660Z,21.10
2022-08-16T23:57:46.139Z,21.10
